Time;durP1;ratioP1;P1;durP2;ratioP2;P2;SDS_P1;SDS_P2;PMS_P1;PMS_P2;Temp;Humidity;BMP_temperature;BMP_pressure;BME280_temperature;BME280_humidity;BME280_pressure;Samples;Min_cycle;Max_cycle;Signal;HPM_P1;HPM_P2
2022/12/27 00:01:44;;;;;;;9.52;2.42;;;3.20;99.90;;;;;;5017961;28;20517;-64
2022/12/27 00:04:10;;;;;;;10.70;2.20;;;3.20;99.90;;;;;;5019286;28;20046;-64
2022/12/27 00:06:36;;;;;;;7.72;2.17;;;3.20;99.90;;;;;;5023745;28;20101;-64
2022/12/27 00:09:03;;;;;;;11.43;2.72;;;3.20;99.90;;;;;;5018523;28;20076;-64
2022/12/27 00:11:30;;;;;;;12.60;2.50;;;3.10;99.90;;;;;;5019151;28;20068;-64
2022/12/27 00:14:00;;;;;;;6.38;1.95;;;3.20;99.90;;;;;;5019109;28;20269;-64
2022/12/27 00:16:26;;;;;;;7.45;1.90;;;3.20;99.90;;;;;;5016300;28;20482;-64
2022/12/27 00:18:52;;;;;;;8.15;2.03;;;3.20;99.90;;;;;;5019244;28;20065;-64
2022/12/27 00:21:19;;;;;;;8.20;1.92;;;3.20;99.90;;;;;;5021120;28;20046;-64
2022/12/27 00:23:49;;;;;;;6.88;1.80;;;3.30;99.90;;;;;;5023943;28;20045;-64
2022/12/27 00:26:23;;;;;;;11.20;3.00;;;3.30;99.90;;;;;;5020185;28;20037;-64
2022/12/27 00:28:49;;;;;;;12.70;2.22;;;3.30;99.90;;;;;;5024963;28;20552;-64
2022/12/27 00:31:16;;;;;;;10.05;2.03;;;3.30;99.90;;;;;;5024414;28;20045;-64
2022/12/27 00:33:44;;;;;;;11.05;2.42;;;3.30;99.90;;;;;;5021423;28;20140;-64
2022/12/27 00:36:16;;;;;;;9.05;2.45;;;3.30;99.90;;;;;;5021471;28;20095;-64
2022/12/27 00:38:42;;;;;;;10.73;2.15;;;3.30;99.90;;;;;;5020549;28;20069;-64
2022/12/27 00:41:08;;;;;;;9.57;2.17;;;3.30;99.90;;;;;;5022200;28;20513;-64
2022/12/27 00:43:34;;;;;;;8.15;2.22;;;3.30;99.90;;;;;;5023367;28;20085;-64
2022/12/27 00:46:01;;;;;;;11.40;2.03;;;3.30;99.90;;;;;;5018681;28;20102;-64
2022/12/27 00:48:26;;;;;;;9.80;1.90;;;3.30;99.90;;;;;;5023331;28;20473;-64
2022/12/27 00:51:14;;;;;;;10.48;2.13;;;3.30;99.90;;;;;;5022558;28;20045;-64
2022/12/27 00:53:41;;;;;;;11.95;2.58;;;3.20;99.90;;;;;;5018929;28;20057;-64
2022/12/27 00:56:13;;;;;;;8.40;2.10;;;3.20;99.90;;;;;;5025023;28;20394;-64
2022/12/27 00:58:39;;;;;;;8.98;1.83;;;3.20;99.90;;;;;;5017422;28;20139;-64
2022/12/27 01:01:13;;;;;;;8.40;1.95;;;3.20;99.90;;;;;;5022694;28;20073;-64
2022/12/27 01:03:39;;;;;;;8.40;2.50;;;3.20;99.90;;;;;;5018764;28;20034;-64
2022/12/27 01:06:07;;;;;;;11.18;2.10;;;3.10;99.90;;;;;;5022489;28;20129;-64
2022/12/27 01:08:33;;;;;;;8.10;1.95;;;3.10;99.90;;;;;;5018174;28;20084;-64
2022/12/27 01:10:58;;;;;;;9.05;1.73;;;3.10;99.90;;;;;;5017703;28;20548;-64
2022/12/27 01:13:24;;;;;;;11.80;2.10;;;3.00;99.90;;;;;;5022299;28;20041;-64
2022/12/27 01:15:50;;;;;;;10.52;2.05;;;3.00;99.90;;;;;;5016338;28;20064;-64
2022/12/27 01:18:16;;;;;;;10.68;2.17;;;3.00;99.90;;;;;;5025540;28;20133;-64
2022/12/27 01:20:41;;;;;;;11.45;2.50;;;3.00;99.90;;;;;;5019808;28;20038;-65
2022/12/27 01:23:07;;;;;;;11.52;2.00;;;3.00;99.90;;;;;;5018985;28;20413;-65
2022/12/27 01:25:33;;;;;;;8.07;2.03;;;3.00;99.90;;;;;;5017147;28;20380;-65
2022/12/27 01:27:58;;;;;;;11.25;2.05;;;3.00;99.90;;;;;;5019383;28;20076;-65
2022/12/27 01:30:24;;;;;;;8.32;1.85;;;3.00;99.90;;;;;;5018132;28;20048;-65
2022/12/27 01:32:50;;;;;;;9.85;2.17;;;3.00;99.90;;;;;;5019053;28;20042;-65
2022/12/27 01:35:16;;;;;;;7.68;1.83;;;3.00;99.90;;;;;;5015710;28;20049;-65
2022/12/27 01:37:41;;;;;;;11.05;2.15;;;3.00;99.90;;;;;;5019518;28;20034;-65
2022/12/27 01:40:08;;;;;;;11.18;2.50;;;3.00;99.90;;;;;;5017914;28;20227;-65
2022/12/27 01:42:52;;;;;;;12.75;2.40;;;3.10;99.90;;;;;;5022651;28;20203;-64
2022/12/27 01:45:23;;;;;;;11.90;1.98;;;3.10;99.90;;;;;;5020776;28;20445;-65
2022/12/27 01:48:19;;;;;;;11.70;2.63;;;3.10;99.90;;;;;;5018754;28;20476;-65
2022/12/27 01:50:52;;;;;;;;;;;3.20;99.90;;;;;;5018167;28;20080;-65
2022/12/27 01:53:26;;;;;;;9.32;2.88;;;3.20;99.90;;;;;;5016901;28;19921;-65
2022/12/27 01:55:58;;;;;;;9.90;2.30;;;3.20;99.90;;;;;;5026523;28;20033;-65
2022/12/27 01:58:30;;;;;;;8.65;1.90;;;3.30;99.90;;;;;;5020094;28;20046;-65
2022/12/27 02:00:57;;;;;;;8.40;2.20;;;3.30;99.90;;;;;;5016104;28;20041;-65
2022/12/27 02:03:29;;;;;;;5.90;2.05;;;3.30;99.90;;;;;;5016453;28;20374;-65
2022/12/27 02:05:58;;;;;;;6.95;2.08;;;3.30;99.90;;;;;;5021399;28;20079;-65
2022/12/27 02:08:45;;;;;;;6.72;2.00;;;3.40;99.90;;;;;;5016034;28;20065;-65
2022/12/27 02:11:12;;;;;;;7.07;2.00;;;3.50;99.90;;;;;;5033586;28;20072;-65
2022/12/27 02:13:42;;;;;;;14.93;2.70;;;3.60;99.90;;;;;;5005319;28;20049;-65
2022/12/27 02:16:18;;;;;;;9.30;2.33;;;3.60;99.90;;;;;;5017031;28;20050;-65
2022/12/27 02:18:45;;;;;;;9.98;1.83;;;3.70;99.90;;;;;;5019335;28;20128;-66
2022/12/27 02:21:38;;;;;;;9.52;1.70;;;3.80;99.90;;;;;;5020531;28;20494;-66
2022/12/27 02:24:22;;;;;;;14.35;2.78;;;3.90;99.90;;;;;;5019364;28;20176;-66
2022/12/27 02:26:53;;;;;;;9.38;1.85;;;3.90;99.90;;;;;;5023808;28;20083;-66
2022/12/27 02:29:50;;;;;;;10.10;1.90;;;3.90;99.90;;;;;;5020205;28;20431;-66
2022/12/27 02:32:28;;;;;;;7.65;1.90;;;3.90;99.90;;;;;;5020508;28;20084;-66
2022/12/27 02:35:02;;;;;;;8.85;1.95;;;3.90;99.90;;;;;;5016060;28;20041;-65
2022/12/27 02:37:31;;;;;;;11.27;2.90;;;3.90;99.90;;;;;;5021751;28;20053;-65
2022/12/27 02:53:02;;;;;;;9.18;1.92;;;3.90;99.90;;;;;;5022441;28;20064;-66
2022/12/27 02:54:43;;;;;;;;;;;3.90;99.90;;;;;;4983500;28;20038;-65
2022/12/27 02:57:45;;;;;;;12.27;2.53;;;3.90;99.90;;;;;;4982961;28;19928;-65
2022/12/27 03:03:27;;;;;;;9.02;1.98;;;3.90;99.90;;;;;;5019546;28;20277;-66
2022/12/27 03:06:40;;;;;;;8.70;2.42;;;3.90;99.90;;;;;;5016477;28;20077;-65
2022/12/27 03:18:14;;;;;;;11.52;2.45;;;3.90;99.90;;;;;;5024395;28;20381;-65
2022/12/27 03:26:13;;;;;;;8.93;1.88;;;3.90;99.90;;;;;;5035157;28;20175;-65
2022/12/27 03:34:54;;;;;;;14.50;2.55;;;4.00;99.90;;;;;;5016821;28;20042;-65
2022/12/27 03:40:21;;;;;;;10.65;1.80;;;4.10;99.90;;;;;;5020093;28;20493;-65
2022/12/27 03:43:11;;;;;;;10.45;2.08;;;4.10;99.90;;;;;;5017938;28;20081;-65
2022/12/27 03:49:09;;;;;;;13.00;2.03;;;4.10;99.90;;;;;;5014422;28;20124;-65
2022/12/27 03:51:48;;;;;;;11.18;1.73;;;4.10;99.90;;;;;;5014255;28;20049;-66
2022/12/27 03:54:25;;;;;;;8.57;1.88;;;4.10;99.90;;;;;;5015335;28;20091;-65
2022/12/27 03:57:13;;;;;;;9.93;2.08;;;4.10;99.90;;;;;;5016840;28;20045;-65
2022/12/27 03:59:39;;;;;;;8.00;1.92;;;4.10;99.90;;;;;;5018597;28;20038;-65
2022/12/27 04:02:05;;;;;;;13.10;2.17;;;4.00;99.90;;;;;;5020421;28;20117;-65
2022/12/27 04:04:31;;;;;;;9.23;1.92;;;4.00;99.90;;;;;;5018736;28;20517;-65
2022/12/27 04:06:57;;;;;;;14.52;2.33;;;4.00;99.90;;;;;;5020168;28;20064;-65
2022/12/27 04:36:47;;;;;;;17.80;2.33;;;3.70;99.90;;;;;;4998757;28;20224;-65
2022/12/27 04:39:13;;;;;;;10.38;1.92;;;3.80;99.90;;;;;;4999988;28;20403;-65
2022/12/27 04:54:55;;;;;;;7.07;2.00;;;3.80;99.90;;;;;;5003480;28;20037;-65
2022/12/27 04:56:01;;;;;;;12.55;2.20;;;3.70;99.90;;;;;;5001153;28;20042;-65
2022/12/27 04:58:28;;;;;;;10.68;2.20;;;3.70;99.90;;;;;;4998538;28;20053;-65
2022/12/27 05:03:41;;;;;;;8.90;1.88;;;3.70;99.90;;;;;;5004777;28;20046;-65
2022/12/27 05:06:07;;;;;;;12.50;2.38;;;3.70;99.90;;;;;;4999073;28;20038;-65
2022/12/27 05:14:03;;;;;;;12.57;1.92;;;3.70;99.90;;;;;;5004818;28;20516;-65
2022/12/27 05:16:33;;;;;;;8.05;2.08;;;3.80;99.90;;;;;;4995607;28;20054;-65
2022/12/27 05:18:59;;;;;;;14.98;2.38;;;3.80;99.90;;;;;;5005971;28;20049;-65
2022/12/27 05:21:25;;;;;;;10.50;2.40;;;3.90;99.90;;;;;;5023662;28;20104;-65
2022/12/27 05:26:37;;;;;;;7.63;2.67;;;3.90;99.90;;;;;;5021676;28;20206;-65
2022/12/27 05:29:04;;;;;;;8.38;1.75;;;3.90;99.90;;;;;;5020855;28;20090;-65
2022/12/27 05:31:30;;;;;;;6.97;2.05;;;4.00;99.90;;;;;;5019795;28;20049;-65
2022/12/27 05:33:56;;;;;;;11.43;2.83;;;4.00;99.90;;;;;;5020908;28;20042;-65
2022/12/27 05:36:22;;;;;;;8.73;1.92;;;4.00;99.90;;;;;;5022864;28;20103;-65
2022/12/27 05:38:49;;;;;;;12.82;2.08;;;3.90;99.90;;;;;;5021576;28;20049;-65
2022/12/27 05:41:15;;;;;;;10.32;2.88;;;3.90;99.90;;;;;;5018838;28;20401;-64
2022/12/27 05:43:41;;;;;;;11.80;2.22;;;3.90;99.90;;;;;;5019178;28;20575;-63
2022/12/27 05:46:12;;;;;;;11.02;1.73;;;4.00;99.90;;;;;;5019128;28;20033;-63
2022/12/27 05:48:38;;;;;;;12.35;2.00;;;3.90;99.90;;;;;;5016590;28;20038;-63
2022/12/27 05:51:10;;;;;;;13.13;1.98;;;3.80;99.90;;;;;;5020297;28;20041;-63
2022/12/27 05:53:36;;;;;;;14.63;2.38;;;3.90;99.90;;;;;;5016519;28;20053;-63
2022/12/27 05:56:03;;;;;;;13.32;2.30;;;3.90;99.90;;;;;;5020440;28;20046;-63
2022/12/27 05:58:29;;;;;;;9.80;2.20;;;3.90;99.90;;;;;;5017796;28;20100;-63
2022/12/27 06:00:55;;;;;;;9.10;1.92;;;3.90;99.90;;;;;;5016685;28;20085;-64
2022/12/27 06:03:21;;;;;;;12.25;1.88;;;3.90;99.90;;;;;;5020088;28;20586;-63
2022/12/27 06:05:47;;;;;;;9.77;1.70;;;3.90;99.90;;;;;;5020705;28;20040;-63
2022/12/27 06:08:12;;;;;;;6.47;1.67;;;4.00;99.90;;;;;;5018880;28;20042;-63
2022/12/27 06:10:39;;;;;;;9.55;1.50;;;4.10;99.90;;;;;;5015944;28;20042;-63
2022/12/27 06:13:05;;;;;;;8.23;1.58;;;4.10;99.90;;;;;;5018883;28;20041;-62
2022/12/27 06:15:31;;;;;;;12.70;2.10;;;4.10;99.90;;;;;;5013277;28;20095;-63
2022/12/27 06:17:58;;;;;;;9.48;1.75;;;4.10;99.90;;;;;;5014463;28;20076;-63
2022/12/27 06:20:24;;;;;;;9.55;1.80;;;4.10;99.90;;;;;;4997046;28;20058;-63
2022/12/27 06:22:50;;;;;;;10.27;1.70;;;4.10;99.90;;;;;;4994521;28;20049;-63
2022/12/27 06:25:16;;;;;;;8.73;1.63;;;4.10;99.90;;;;;;4992254;28;20081;-63
2022/12/27 06:27:41;;;;;;;12.57;1.98;;;4.10;99.90;;;;;;4999420;28;20034;-63
2022/12/27 06:30:09;;;;;;;9.75;1.70;;;4.10;99.90;;;;;;4996965;28;20085;-63
2022/12/27 06:32:35;;;;;;;8.90;1.52;;;4.10;99.90;;;;;;4994292;28;20106;-63
2022/12/27 06:35:01;;;;;;;12.20;1.83;;;4.10;99.90;;;;;;4993986;28;20121;-63
2022/12/27 06:37:29;;;;;;;9.43;1.70;;;4.10;99.90;;;;;;4997238;28;20498;-63
2022/12/27 06:39:55;;;;;;;12.32;1.67;;;4.10;99.90;;;;;;5002041;28;20430;-63
2022/12/27 06:42:20;;;;;;;7.85;1.67;;;4.00;99.90;;;;;;4999356;28;20042;-63
2022/12/27 06:44:46;;;;;;;7.07;1.95;;;3.90;99.90;;;;;;4994610;28;20041;-64
2022/12/27 06:47:12;;;;;;;7.90;1.70;;;3.90;99.90;;;;;;4998664;28;20454;-63
2022/12/27 06:49:37;;;;;;;12.32;2.45;;;3.80;99.90;;;;;;5003201;28;20065;-64
2022/12/27 06:52:03;;;;;;;15.88;2.20;;;3.80;99.90;;;;;;4991728;28;20031;-63
2022/12/27 06:54:29;;;;;;;10.68;2.13;;;3.80;99.90;;;;;;4995927;28;20501;-63
2022/12/27 06:56:55;;;;;;;10.77;1.80;;;3.70;99.90;;;;;;4994467;28;20048;-64
2022/12/27 06:59:22;;;;;;;14.30;2.72;;;3.70;99.90;;;;;;4999426;28;20045;-63
2022/12/27 07:01:48;;;;;;;10.73;2.17;;;3.70;99.90;;;;;;4994912;28;20486;-63
2022/12/27 07:04:14;;;;;;;10.70;2.22;;;3.70;99.90;;;;;;4996840;28;20768;-63
2022/12/27 07:06:39;;;;;;;11.18;2.40;;;3.70;99.90;;;;;;4996608;28;20136;-62
2022/12/27 07:09:05;;;;;;;9.93;2.33;;;3.60;99.90;;;;;;4998309;28;20100;-63
2022/12/27 07:11:33;;;;;;;9.95;2.10;;;3.60;99.90;;;;;;4999256;28;20108;-63
2022/12/27 07:13:59;;;;;;;13.10;2.35;;;3.60;99.90;;;;;;4997053;28;20133;-63
2022/12/27 07:16:26;;;;;;;12.00;2.33;;;3.60;99.90;;;;;;4994197;28;20133;-63
2022/12/27 07:18:54;;;;;;;14.32;2.28;;;3.70;99.90;;;;;;5004388;28;20137;-63
2022/12/27 07:21:22;;;;;;;10.48;2.22;;;3.70;99.90;;;;;;5012327;28;20046;-63
2022/12/27 07:23:48;;;;;;;16.20;2.13;;;3.70;99.90;;;;;;5016747;28;20046;-64
2022/12/27 07:26:22;;;;;;;10.68;2.13;;;3.70;99.90;;;;;;5016754;28;20038;-64
2022/12/27 07:28:48;;;;;;;10.10;2.45;;;3.70;99.90;;;;;;5016875;28;20034;-63
2022/12/27 07:31:19;;;;;;;16.73;3.97;;;3.70;99.90;;;;;;5018693;28;20038;-64
2022/12/27 07:33:45;;;;;;;12.88;3.65;;;3.70;99.90;;;;;;5011282;28;20064;-63
2022/12/27 07:36:16;;;;;;;11.35;3.95;;;3.60;99.90;;;;;;5018492;28;20042;-64
2022/12/27 07:38:42;;;;;;;11.52;2.20;;;3.70;99.90;;;;;;5013505;28;20092;-64
2022/12/27 07:41:09;;;;;;;9.30;2.47;;;3.70;99.90;;;;;;5014580;28;20050;-63
2022/12/27 07:43:35;;;;;;;13.35;2.03;;;3.70;99.90;;;;;;5011525;28;20049;-63
2022/12/27 07:46:09;;;;;;;12.88;1.90;;;3.60;99.90;;;;;;5015843;28;20425;-63
2022/12/27 07:48:35;;;;;;;7.87;1.87;;;3.60;99.90;;;;;;5012888;28;20042;-63
2022/12/27 07:51:01;;;;;;;9.25;1.90;;;3.50;99.90;;;;;;5016306;28;20524;-63
2022/12/27 07:53:27;;;;;;;10.35;1.75;;;3.50;99.90;;;;;;5024137;28;20050;-63
2022/12/27 07:55:53;;;;;;;9.77;1.60;;;3.60;99.90;;;;;;5015227;28;20060;-63
2022/12/27 07:58:19;;;;;;;8.20;2.10;;;3.50;99.90;;;;;;5012260;28;20044;-62
2022/12/27 08:00:47;;;;;;;15.23;2.22;;;3.50;99.90;;;;;;5016099;28;20041;-63
2022/12/27 08:03:13;;;;;;;10.35;1.73;;;3.60;99.90;;;;;;5018326;28;20459;-63
2022/12/27 08:05:48;;;;;;;9.02;2.03;;;3.60;99.90;;;;;;5019997;28;20034;-63
2022/12/27 08:08:16;;;;;;;13.77;2.45;;;3.60;99.90;;;;;;5018019;28;20037;-63
2022/12/27 08:10:42;;;;;;;10.65;2.20;;;3.60;99.90;;;;;;5018948;28;20080;-64
2022/12/27 08:13:08;;;;;;;11.70;1.73;;;3.60;99.90;;;;;;5020968;28;20077;-63
2022/12/27 08:15:34;;;;;;;10.32;2.30;;;3.60;99.90;;;;;;5020808;28;20046;-63
2022/12/27 08:18:00;;;;;;;9.65;2.05;;;3.60;99.90;;;;;;5014865;28;20099;-64
2022/12/27 08:20:26;;;;;;;8.77;2.00;;;3.60;99.90;;;;;;5018328;28;20079;-63
2022/12/27 08:22:52;;;;;;;12.13;2.80;;;3.70;99.90;;;;;;5018856;28;20045;-64
2022/12/27 08:25:17;;;;;;;13.50;2.42;;;3.80;99.90;;;;;;5019003;28;20481;-64
2022/12/27 08:27:43;;;;;;;13.20;2.60;;;3.80;99.90;;;;;;5018894;28;20048;-63
2022/12/27 08:30:10;;;;;;;11.65;2.15;;;3.80;99.90;;;;;;5016677;28;20050;-64
2022/12/27 08:32:35;;;;;;;7.85;2.45;;;3.90;99.90;;;;;;5022839;28;20044;-64
2022/12/27 08:35:01;;;;;;;17.60;2.47;;;3.90;99.90;;;;;;5016697;28;20117;-64
2022/12/27 08:37:27;;;;;;;9.57;2.30;;;3.90;99.90;;;;;;5018818;28;20140;-63
2022/12/27 08:39:53;;;;;;;9.90;2.30;;;3.90;99.90;;;;;;5016099;28;20501;-64
2022/12/27 08:42:19;;;;;;;9.88;2.70;;;3.90;99.90;;;;;;5020523;28;20036;-64
2022/12/27 08:44:44;;;;;;;12.57;2.90;;;3.90;99.90;;;;;;5017285;28;20069;-64
2022/12/27 08:47:10;;;;;;;15.52;2.72;;;4.00;99.90;;;;;;5025304;28;20071;-63
2022/12/27 08:49:36;;;;;;;15.57;2.20;;;4.00;99.90;;;;;;5022306;28;20432;-63
2022/12/27 08:52:02;;;;;;;10.60;3.00;;;4.10;99.90;;;;;;5029211;28;20133;-63
2022/12/27 08:54:28;;;;;;;12.13;2.40;;;4.10;99.90;;;;;;5020838;28;20037;-64
2022/12/27 08:56:53;;;;;;;11.02;2.58;;;4.10;99.90;;;;;;5021634;28;20057;-63
2022/12/27 08:59:19;;;;;;;9.05;2.92;;;4.10;99.90;;;;;;5027248;28;20166;-65
2022/12/27 09:01:45;;;;;;;15.55;4.55;;;4.10;99.90;;;;;;5025763;28;20029;-65
2022/12/27 09:04:10;;;;;;;11.93;3.50;;;4.10;99.90;;;;;;5026239;28;20042;-65
2022/12/27 09:06:38;;;;;;;9.93;2.80;;;4.10;99.90;;;;;;5020993;28;20440;-65
2022/12/27 09:09:04;;;;;;;6.88;2.30;;;4.10;99.90;;;;;;5025186;28;20121;-65
2022/12/27 09:11:33;;;;;;;10.25;2.67;;;4.10;99.90;;;;;;5024066;28;20460;-65
2022/12/27 09:14:01;;;;;;;15.90;2.83;;;4.10;99.90;;;;;;5025760;28;20107;-65
2022/12/27 09:16:28;;;;;;;14.50;3.10;;;4.10;99.90;;;;;;5020591;28;20129;-65
2022/12/27 09:18:56;;;;;;;10.43;2.72;;;4.20;99.90;;;;;;5025389;28;20437;-66
2022/12/27 09:21:23;;;;;;;9.25;3.30;;;4.20;99.90;;;;;;5021930;28;20049;-65
2022/12/27 09:23:50;;;;;;;16.00;3.15;;;4.30;99.90;;;;;;5025934;28;20451;-66
2022/12/27 09:26:21;;;;;;;11.50;3.08;;;4.40;99.90;;;;;;5023382;28;21103;-65
2022/12/27 09:28:48;;;;;;;14.68;3.80;;;4.40;99.90;;;;;;5024192;28;20038;-65
2022/12/27 09:31:16;;;;;;;10.32;2.35;;;4.40;99.90;;;;;;5023283;28;20113;-65
2022/12/27 09:33:42;;;;;;;12.52;3.00;;;4.50;99.90;;;;;;5022411;28;20503;-66
2022/12/27 09:36:10;;;;;;;14.43;3.00;;;4.50;99.90;;;;;;5022590;28;20049;-65
2022/12/27 09:38:37;;;;;;;9.43;2.30;;;4.50;99.90;;;;;;5026802;28;20053;-65
2022/12/27 09:41:10;;;;;;;9.93;2.97;;;4.50;99.90;;;;;;5017862;28;20030;-65
2022/12/27 09:43:51;;;;;;;9.45;2.53;;;4.60;99.90;;;;;;5022650;28;20034;-65
2022/12/27 09:46:25;;;;;;;14.65;2.47;;;4.60;99.90;;;;;;5034694;28;20037;-65
2022/12/27 09:48:53;;;;;;;8.02;2.55;;;4.70;99.90;;;;;;5022125;28;20160;-65
2022/12/27 09:51:34;;;;;;;13.45;2.72;;;4.70;99.90;;;;;;5018628;28;20587;-66
2022/12/27 09:54:09;;;;;;;13.73;2.63;;;4.70;99.90;;;;;;5026307;28;20037;-65
2022/12/27 09:56:35;;;;;;;12.18;2.67;;;4.70;99.90;;;;;;5023914;28;20064;-65
2022/12/27 09:59:27;;;;;;;9.20;2.30;;;4.80;99.90;;;;;;5020128;28;20060;-65
2022/12/27 10:01:53;;;;;;;10.85;2.65;;;4.90;99.90;;;;;;5023458;28;20505;-65
2022/12/27 10:04:20;;;;;;;14.18;3.10;;;4.90;99.90;;;;;;5022831;28;20034;-66
2022/12/27 10:06:48;;;;;;;11.35;2.63;;;4.90;99.90;;;;;;5022281;28;20037;-66
2022/12/27 10:09:17;;;;;;;14.40;2.40;;;5.00;99.90;;;;;;5016958;28;20112;-66
2022/12/27 10:11:48;;;;;;;11.10;2.40;;;5.10;99.90;;;;;;5020362;28;20454;-66
2022/12/27 10:14:23;;;;;;;12.75;2.60;;;5.20;99.90;;;;;;5019046;28;20048;-66
2022/12/27 10:17:15;;;;;;;7.00;2.50;;;5.30;99.90;;;;;;5024044;28;20053;-65
2022/12/27 10:19:53;;;;;;;10.32;2.53;;;5.30;99.90;;;;;;5015859;28;20104;-66
2022/12/27 10:22:33;;;;;;;14.77;3.08;;;5.30;99.90;;;;;;5020523;28;20058;-66
2022/12/27 10:25:03;;;;;;;12.02;3.13;;;5.30;99.90;;;;;;5016214;28;20037;-66
2022/12/27 10:27:30;;;;;;;12.73;2.50;;;5.20;99.90;;;;;;5018746;28;20073;-66
2022/12/27 10:29:58;;;;;;;14.73;2.40;;;5.20;99.90;;;;;;5021815;28;20040;-66
2022/12/27 10:32:24;;;;;;;12.27;2.85;;;5.30;99.90;;;;;;5020438;28;20068;-66
2022/12/27 10:35:00;;;;;;;17.92;3.50;;;5.30;99.90;;;;;;5020269;28;20072;-66
2022/12/27 10:37:27;;;;;;;9.82;2.05;;;5.30;99.90;;;;;;5021634;28;20041;-66
2022/12/27 10:39:54;;;;;;;9.65;1.92;;;5.40;99.90;;;;;;5021796;28;20087;-65
2022/12/27 10:42:34;;;;;;;11.98;2.63;;;5.60;99.90;;;;;;5020328;28;20046;-65
2022/12/27 10:45:32;;;;;;;11.00;2.45;;;5.80;99.90;;;;;;5018430;28;20037;-65
2022/12/27 10:48:27;;;;;;;9.35;2.20;;;6.10;99.90;;;;;;5023830;28;20041;-65
2022/12/27 10:51:00;;;;;;;10.75;2.65;;;6.20;99.90;;;;;;5021119;28;20057;-65
2022/12/27 10:53:33;;;;;;;9.48;2.13;;;6.30;99.90;;;;;;5019437;28;20440;-65
2022/12/27 10:56:20;;;;;;;9.17;2.33;;;6.30;99.90;;;;;;5022356;28;20041;-65
2022/12/27 10:58:51;;;;;;;7.88;1.85;;;6.30;99.90;;;;;;5024460;28;20284;-65
2022/12/27 11:01:28;;;;;;;11.65;2.83;;;6.30;99.90;;;;;;5025106;28;20043;-65
2022/12/27 11:04:26;;;;;;;8.63;2.10;;;6.40;99.90;;;;;;5026323;28;20042;-65
2022/12/27 11:07:01;;;;;;;13.00;2.42;;;6.40;99.90;;;;;;5020996;28;20121;-65
2022/12/27 11:09:28;;;;;;;11.35;2.63;;;6.50;99.90;;;;;;5019248;28;20038;-65
2022/12/27 11:12:20;;;;;;;15.13;3.13;;;6.50;99.90;;;;;;5024762;28;20049;-65
2022/12/27 11:15:14;;;;;;;11.65;3.35;;;6.50;99.90;;;;;;5015822;28;20196;-65
2022/12/27 11:17:42;;;;;;;26.38;17.00;;;6.50;99.90;;;;;;5027588;28;20056;-65
2022/12/27 11:20:13;;;;;;;11.70;3.95;;;6.50;99.90;;;;;;5025778;28;20061;-65
2022/12/27 11:22:53;;;;;;;11.82;3.10;;;6.50;99.90;;;;;;5025436;28;20085;-65
2022/12/27 11:25:20;;;;;;;7.45;2.40;;;6.60;99.90;;;;;;5015603;28;20073;-65
2022/12/27 11:28:25;;;;;;;10.43;2.30;;;6.50;99.90;;;;;;5021538;28;20449;-65
2022/12/27 11:30:56;;;;;;;;;;;6.60;99.90;;;;;;5018016;28;20038;-66
2022/12/27 11:33:39;;;;;;;15.38;2.55;;;6.50;99.90;;;;;;5021478;28;19931;-65
2022/12/27 11:36:08;;;;;;;15.13;2.67;;;6.60;99.90;;;;;;5025202;28;20050;-65
2022/12/27 11:38:36;;;;;;;10.68;2.17;;;6.60;99.90;;;;;;5028910;28;20405;-66
2022/12/27 11:41:15;;;;;;;10.18;1.83;;;6.70;99.90;;;;;;5022080;28;20541;-66
2022/12/27 11:43:56;;;;;;;7.95;2.17;;;6.80;99.90;;;;;;5028014;28;20508;-66
2022/12/27 11:46:41;;;;;;;9.63;2.10;;;6.90;99.90;;;;;;5025322;28;20095;-66
2022/12/27 11:49:22;;;;;;;9.93;2.20;;;7.00;99.90;;;;;;5027568;28;20495;-66
2022/12/27 11:52:22;;;;;;;10.25;2.50;;;7.20;99.90;;;;;;5022589;28;20037;-66
2022/12/27 11:55:00;;;;;;;6.63;2.10;;;7.20;99.90;;;;;;5030422;28;20048;-66
2022/12/27 11:57:44;;;;;;;8.77;2.00;;;7.20;99.90;;;;;;5022894;28;20029;-66
2022/12/27 12:00:23;;;;;;;10.50;3.88;;;7.10;99.90;;;;;;5022560;28;20049;-70
2022/12/27 12:03:09;;;;;;;25.92;16.48;;;7.00;99.90;;;;;;5020384;28;20046;-69
2022/12/27 12:06:17;;;;;;;30.98;15.57;;;6.90;99.90;;;;;;5013964;28;20061;-76
2022/12/27 12:09:07;;;;;;;34.88;25.17;;;6.80;99.90;;;;;;4997770;28;20037;-66
2022/12/27 12:12:03;;;;;;;12.77;2.92;;;6.80;99.90;;;;;;5025035;28;20079;-66
2022/12/27 12:14:56;;;;;;;10.70;2.35;;;6.80;99.90;;;;;;5025969;28;20083;-66
2022/12/27 12:17:59;;;;;;;10.57;2.60;;;6.70;99.90;;;;;;5023260;28;20037;-66
2022/12/27 12:20:52;;;;;;;17.10;2.60;;;6.70;99.90;;;;;;5024365;28;20057;-66
2022/12/27 12:23:41;;;;;;;9.23;2.60;;;6.70;99.90;;;;;;5020394;28;20473;-66
2022/12/27 12:26:20;;;;;;;11.55;2.55;;;6.80;99.90;;;;;;5019336;28;20041;-66
2022/12/27 12:29:13;;;;;;;10.60;2.75;;;6.80;99.90;;;;;;5019892;28;20045;-66
2022/12/27 12:31:51;;;;;;;10.18;2.67;;;6.70;99.90;;;;;;5023511;28;20042;-66
2022/12/27 12:34:50;;;;;;;15.13;2.90;;;6.70;99.90;;;;;;5021660;28;20501;-66
2022/12/27 12:37:15;;;;;;;11.13;2.50;;;6.70;99.90;;;;;;5022651;28;20397;-66
2022/12/27 12:39:59;;;;;;;8.85;2.55;;;6.70;99.90;;;;;;5020074;28;20045;-66
2022/12/27 12:42:34;;;;;;;14.43;2.43;;;6.70;99.90;;;;;;5022463;28;20473;-66
2022/12/27 12:45:12;;;;;;;;;;;6.70;99.90;;;;;;5026468;28;20042;-66
2022/12/27 12:48:02;;;;;;;15.98;2.60;;;6.70;99.90;;;;;;5017576;28;19995;-66
2022/12/27 12:50:41;;;;;;;13.88;2.88;;;6.80;99.90;;;;;;5017879;28;20061;-66
2022/12/27 12:53:32;;;;;;;9.40;2.45;;;6.80;99.90;;;;;;5019115;28;20046;-66
2022/12/27 12:56:07;;;;;;;12.43;3.08;;;6.80;99.90;;;;;;5020737;28;20117;-66
2022/12/27 12:58:56;;;;;;;;;;;6.80;99.90;;;;;;5017190;28;20433;-66
2022/12/27 13:01:52;;;;;;;12.25;2.60;;;6.80;99.90;;;;;;5020889;28;20361;-66
2022/12/27 13:04:21;;;;;;;10.75;2.67;;;6.80;99.90;;;;;;5017227;28;20074;-65
2022/12/27 13:07:02;;;;;;;12.35;3.35;;;6.80;99.90;;;;;;5016056;28;20497;-65
2022/12/27 13:10:08;;;;;;;11.18;2.88;;;6.90;99.90;;;;;;5015505;28;20045;-65
2022/12/27 13:12:56;;;;;;;12.93;3.30;;;6.90;99.90;;;;;;5012942;28;20041;-65
2022/12/27 13:15:31;;;;;;;6.95;2.42;;;6.90;99.90;;;;;;5017381;28;20045;-65
2022/12/27 13:18:15;;;;;;;;;;;7.00;99.90;;;;;;5017485;28;20466;-65
2022/12/27 13:21:20;;;;;;;11.82;3.30;;;6.90;99.90;;;;;;5028400;28;19925;-65
2022/12/27 13:24:06;;;;;;;12.27;3.17;;;7.00;99.90;;;;;;5022962;28;20045;-65
2022/12/27 13:27:02;;;;;;;8.82;3.30;;;7.00;99.90;;;;;;5021506;28;20415;-65
2022/12/27 13:29:50;;;;;;;13.27;3.50;;;7.00;99.90;;;;;;5017640;28;20073;-65
2022/12/27 13:32:16;;;;;;;12.65;3.88;;;7.00;99.90;;;;;;5021668;28;20056;-65
2022/12/27 13:34:51;;;;;;;7.63;3.60;;;7.00;99.90;;;;;;5021532;28;20054;-65
2022/12/27 13:37:16;;;;;;;13.32;4.35;;;6.90;99.90;;;;;;5019178;28;20371;-66
2022/12/27 13:39:57;;;;;;;12.85;4.90;;;6.90;99.90;;;;;;5020470;28;20088;-65
2022/12/27 13:42:43;;;;;;;13.85;4.90;;;6.90;99.90;;;;;;5024855;28;20041;-65
2022/12/27 13:45:45;;;;;;;12.38;4.97;;;6.90;99.90;;;;;;5019893;28;20077;-65
2022/12/27 13:48:13;;;;;;;11.80;5.60;;;6.90;99.90;;;;;;5026617;28;20042;-65
2022/12/27 13:51:16;;;;;;;16.15;6.20;;;7.00;99.90;;;;;;5016113;28;20051;-65
2022/12/27 13:53:51;;;;;;;10.77;6.32;;;7.00;99.90;;;;;;5019590;28;20046;-65
2022/12/27 13:56:19;;;;;;;17.85;6.90;;;6.90;99.90;;;;;;5016564;28;20214;-65
2022/12/27 13:59:33;;;;;;;17.38;8.20;;;6.90;99.90;;;;;;5014720;28;20034;-65
2022/12/27 14:02:21;;;;;;;17.15;8.32;;;6.90;99.90;;;;;;4996437;28;20057;-65
2022/12/27 14:05:08;;;;;;;17.98;9.82;;;6.80;99.90;;;;;;5026292;28;20124;-65
2022/12/27 14:07:46;;;;;;;14.60;8.98;;;6.70;99.90;;;;;;5020054;28;20071;-66
2022/12/27 14:10:24;;;;;;;20.30;10.90;;;6.60;99.90;;;;;;5025078;28;20386;-65
2022/12/27 14:13:01;;;;;;;12.73;9.23;;;6.60;99.90;;;;;;5025481;28;20412;-66
2022/12/27 14:15:42;;;;;;;16.33;9.43;;;6.50;99.90;;;;;;5017551;28;20489;-65
2022/12/27 14:18:29;;;;;;;15.15;9.95;;;6.50;99.90;;;;;;5022225;28;20454;-65
2022/12/27 14:21:13;;;;;;;15.55;10.40;;;6.40;99.90;;;;;;5021848;28;20565;-65
2022/12/27 14:24:27;;;;;;;15.00;9.63;;;6.40;99.90;;;;;;5022676;28;20029;-66
2022/12/27 14:27:30;;;;;;;19.77;10.07;;;6.40;99.90;;;;;;5019924;28;20362;-65
2022/12/27 14:30:33;;;;;;;15.18;10.05;;;6.30;99.90;;;;;;5018758;28;20393;-65
2022/12/27 14:33:05;;;;;;;14.88;9.52;;;6.20;99.90;;;;;;5022105;28;20495;-65
2022/12/27 14:35:55;;;;;;;16.60;10.05;;;6.10;99.90;;;;;;5017877;28;20478;-65
2022/12/27 14:39:04;;;;;;;15.48;10.32;;;6.10;99.90;;;;;;5020463;28;20491;-65
2022/12/27 14:41:58;;;;;;;17.63;10.82;;;6.00;99.90;;;;;;4997053;28;20061;-65
2022/12/27 14:45:01;;;;;;;20.40;11.30;;;5.90;99.90;;;;;;4999812;28;20100;-65
2022/12/27 14:47:45;;;;;;;20.80;12.15;;;5.90;99.90;;;;;;5016216;28;20041;-65
2022/12/27 14:50:48;;;;;;;22.23;11.02;;;5.80;99.90;;;;;;5020775;28;20117;-65
2022/12/27 14:53:35;;;;;;;19.27;12.23;;;5.80;99.90;;;;;;5018834;28;20095;-65
2022/12/27 14:56:55;;;;;;;21.65;12.35;;;5.70;99.90;;;;;;5022717;28;20083;-65
2022/12/27 14:59:31;;;;;;;18.80;11.65;;;5.70;99.90;;;;;;4975612;28;20125;-65